EmailTwitter


Observations de surface / France / LFMP (07747)

Régions: Québec | Canada | États-Unis | Europe | France | UK | Ailleurs
Station
Affichage
Infos & localisation pour LFMP (07747) | Aide pour décoder les METARs

Observations prises le 2019-04-23 à 18H30 UTC à PERPIGNAN/RIVESA, FR (LFMP)

Température: 15.0 Celsius

Point de rosée: 12.0 Celsius

Humidité relative: 82%

Vents: Sud-sud-ouest à 9 km/h ou 5 noeuds.

Pression au niveau moyen de la mer: 99.60 kilopascals.

Visibilité horizontale: 6.21 milles terrestres ou 9.94 kilomètres.

Observation METAR:

LFMP 231830Z AUTO 20005KT 9999 NCD 15/12 Q0996 NOSIG=